Time;durP1;ratioP1;P1;durP2;ratioP2;P2;SDS_P1;SDS_P2;PMS_P1;PMS_P2;Temp;Humidity;BMP_temperature;BMP_pressure;BME280_temperature;BME280_humidity;BME280_pressure;Samples;Min_cycle;Max_cycle;Signal;HPM_P1;HPM_P2
2022/11/16 00:01:27;;;;;;;4.72;0.40;;;;;;;18.90;48.94;99707.38;16127467;19;130309;-42
2022/11/16 00:06:48;;;;;;;0.68;0.38;;;;;;;18.87;49.10;99710.72;16128391;19;129532;-42
2022/11/16 00:12:11;;;;;;;0.90;0.50;;;;;;;18.86;48.90;99719.28;16127859;19;130869;-42
2022/11/16 00:17:33;;;;;;;1.33;0.45;;;;;;;18.84;49.21;99719.59;16127538;19;129101;-42
2022/11/16 00:22:54;;;;;;;2.47;0.45;;;;;;;18.82;49.29;99716.25;16129361;19;129585;-41
2022/11/16 00:28:16;;;;;;;0.55;0.30;;;;;;;18.82;49.02;99705.16;16125752;19;129673;-41
2022/11/16 00:33:39;;;;;;;1.02;0.40;;;;;;;18.79;48.92;99710.44;16125516;19;129234;-42
2022/11/16 00:39:01;;;;;;;0.93;0.30;;;;;;;18.76;49.16;99711.84;16126384;19;129800;-42
2022/11/16 00:44:23;;;;;;;1.95;0.30;;;;;;;18.74;49.16;99708.50;16126071;19;129202;-42
2022/11/16 00:49:44;;;;;;;0.70;0.40;;;;;;;18.73;49.38;99710.44;16123236;19;129170;-42
2022/11/16 00:55:06;;;;;;;1.17;0.30;;;;;;;18.72;49.36;99689.38;16123886;19;129572;-41
2022/11/16 01:00:28;;;;;;;2.15;0.30;;;;;;;18.69;49.17;99689.09;16122405;19;129355;-42
2022/11/16 01:05:50;;;;;;;1.05;0.38;;;;;;;18.67;49.22;99697.69;16122767;19;130983;-42
2022/11/16 01:16:55;;;;;;;1.40;0.45;;;;;;;18.65;49.11;99705.44;16123093;19;129379;-41
2022/11/16 01:22:17;;;;;;;0.85;0.30;;;;;;;18.64;49.39;99702.97;16122032;19;129776;-42
2022/11/16 01:27:38;;;;;;;0.38;0.30;;;;;;;18.63;49.32;99720.69;16120407;19;129735;-42
2022/11/16 01:33:00;;;;;;;0.43;0.20;;;;;;;18.62;49.53;99728.16;16121369;19;129767;-42
2022/11/16 01:38:22;;;;;;;0.45;0.30;;;;;;;18.60;49.50;99731.22;16120328;19;130138;-42
2022/11/16 01:44:02;;;;;;;0.88;0.32;;;;;;;18.60;49.16;99736.75;16122893;19;129394;-42
2022/11/16 01:49:28;;;;;;;0.73;0.38;;;;;;;18.58;49.13;99718.75;16120265;19;129593;-42
2022/11/16 01:54:52;;;;;;;0.65;0.22;;;;;;;18.57;49.27;99719.84;16128300;19;132825;-43
2022/11/16 02:00:15;;;;;;;1.23;0.40;;;;;;;18.56;49.26;99718.19;16139376;19;129403;-42
2022/11/16 02:05:52;;;;;;;0.45;0.40;;;;;;;18.56;49.28;99715.41;16134648;19;130206;-43
2022/11/16 02:12:18;;;;;;;0.68;0.43;;;;;;;18.52;49.35;99711.53;16135864;19;129315;-42
2022/11/16 02:18:05;;;;;;;0.20;0.20;;;;;;;18.52;49.11;99708.75;16128094;19;129749;-43
2022/11/16 02:23:56;;;;;;;0.70;0.20;;;;;;;18.51;49.08;99715.41;16126266;19;130138;-41
2022/11/16 02:29:44;;;;;;;0.45;0.20;;;;;;;18.49;49.39;99715.69;16125787;19;130219;-42
2022/11/16 02:35:09;;;;;;;4.13;0.22;;;;;;;18.47;49.35;99720.66;16125215;19;129705;-42
2022/11/16 02:40:34;;;;;;;1.83;0.20;;;;;;;18.46;49.43;99719.00;16123946;19;131873;-42
2022/11/16 02:45:59;;;;;;;0.33;0.20;;;;;;;18.46;49.10;99727.31;16127606;19;131292;-42
2022/11/16 02:51:24;;;;;;;0.60;0.28;;;;;;;18.45;49.39;99731.19;16131840;19;130092;-41
2022/11/16 02:56:46;;;;;;;0.20;0.20;;;;;;;18.45;49.29;99737.56;16132710;19;129841;-42
2022/11/16 03:02:29;;;;;;;0.10;0.10;;;;;;;18.44;49.14;99735.91;16131263;19;129447;-41
2022/11/16 03:07:58;;;;;;;0.25;0.20;;;;;;;18.43;49.41;99742.53;16133555;19;133048;-41
2022/11/16 03:13:23;;;;;;;0.20;0.20;;;;;;;18.41;49.15;99739.22;16132918;19;130055;-41
2022/11/16 03:18:48;;;;;;;0.45;0.10;;;;;;;18.41;49.46;99750.28;16132096;19;129323;-43
2022/11/16 03:24:10;;;;;;;0.20;0.10;;;;;;;18.39;49.54;99757.19;16133245;19;130504;-41
2022/11/16 03:29:39;;;;;;;0.20;0.20;;;;;;;18.40;49.52;99768.00;16133454;19;129657;-41
2022/11/16 03:35:48;;;;;;;1.08;0.10;;;;;;;18.38;49.39;99764.63;16131319;19;130317;-42
2022/11/16 03:41:12;;;;;;;0.13;0.13;;;;;;;18.37;49.63;99771.28;16130956;19;130135;-43
2022/11/16 03:46:34;;;;;;;0.25;0.20;;;;;;;18.37;49.21;99787.06;16130241;19;129461;-42
2022/11/16 03:51:57;;;;;;;0.10;0.10;;;;;;;18.35;49.37;99784.56;16130938;19;129725;-42
2022/11/16 03:57:18;;;;;;;0.17;0.17;;;;;;;18.34;49.64;99788.44;16127807;19;129534;-42
2022/11/16 04:02:40;;;;;;;0.45;0.22;;;;;;;18.34;49.14;99791.19;16120022;19;130234;-42
2022/11/16 04:25:16;;;;;;;0.55;0.10;;;;;;;18.31;49.65;99791.75;16126413;19;129573;-42
2022/11/16 04:42:18;;;;;;;0.20;0.13;;;;;;;18.29;49.36;99791.19;16125801;19;129028;-42
2022/11/16 04:47:40;;;;;;;0.20;0.20;;;;;;;18.27;49.40;99790.63;16125290;19;130156;-42
2022/11/16 04:53:03;;;;;;;0.10;0.10;;;;;;;18.26;49.24;99788.97;16122120;19;129028;-42
2022/11/16 04:58:25;;;;;;;0.40;0.10;;;;;;;18.25;49.71;99799.22;16125314;19;129280;-42
2022/11/16 05:03:46;;;;;;;0.10;0.10;;;;;;;18.25;49.62;99802.00;16122107;19;130704;-42
2022/11/16 05:09:08;;;;;;;0.20;0.17;;;;;;;18.25;49.20;99790.06;16123318;19;129384;-42
2022/11/16 05:14:30;;;;;;;0.20;0.17;;;;;;;18.23;49.28;99792.28;16124468;19;129746;-42
2022/11/16 05:25:32;;;;;;;0.25;0.10;;;;;;;18.21;49.21;99778.72;16123687;19;130316;-42
2022/11/16 05:30:57;;;;;;;0.20;0.20;;;;;;;18.22;49.24;99785.06;16133799;19;129395;-42
2022/11/16 05:36:19;;;;;;;0.28;0.20;;;;;;;18.21;49.35;99791.72;16137528;19;129512;-42
2022/11/16 05:41:40;;;;;;;0.25;0.20;;;;;;;18.21;49.39;99797.28;16137298;19;128951;-42
2022/11/16 05:47:02;;;;;;;0.85;0.20;;;;;;;18.21;49.49;99802.81;16136446;19;129588;-42
2022/11/16 05:52:24;;;;;;;1.17;0.20;;;;;;;18.20;49.57;99812.22;16135452;19;129233;-42
2022/11/16 05:57:46;;;;;;;0.95;0.20;;;;;;;18.20;49.42;99809.44;16138291;19;130217;-42
2022/11/16 06:03:08;;;;;;;0.20;0.20;;;;;;;18.19;49.52;99813.31;16136720;19;129222;-42
2022/11/16 06:08:29;;;;;;;0.20;0.10;;;;;;;18.29;49.59;99816.13;16133699;19;130537;-42
2022/11/16 06:13:52;;;;;;;0.20;0.20;;;;;;;18.57;49.05;99825.09;16135461;19;129197;-41
2022/11/16 06:19:13;;;;;;;0.15;0.15;;;;;;;18.93;48.67;99819.63;16135667;19;129470;-42
2022/11/16 06:24:35;;;;;;;2.03;0.22;;;;;;;19.17;48.05;99825.44;16134651;19;133381;-43
2022/11/16 06:29:57;;;;;;;0.17;0.10;;;;;;;19.32;48.09;99829.38;16134968;19;129920;-42
2022/11/16 06:35:19;;;;;;;0.65;0.30;;;;;;;19.37;47.33;99827.44;16134772;19;129943;-41
2022/11/16 06:40:40;;;;;;;1.30;0.15;;;;;;;19.37;47.41;99829.38;16135065;19;130101;-42
2022/11/16 06:46:02;;;;;;;0.25;0.10;;;;;;;19.34;47.46;99839.06;16134456;19;129581;-42
2022/11/16 06:51:24;;;;;;;1.58;0.50;;;;;;;19.29;47.54;99830.75;16132594;19;129485;-42
2022/11/16 06:56:46;;;;;;;0.85;0.30;;;;;;;19.23;47.60;99848.50;16130855;19;129567;-41
2022/11/16 07:02:12;;;;;;;1.25;0.40;;;;;;;19.18;47.83;99856.78;16129583;19;129092;-42
2022/11/16 07:07:34;;;;;;;2.55;0.30;;;;;;;19.12;47.74;99857.88;16133145;19;129826;-42
2022/11/16 07:12:59;;;;;;;0.80;0.17;;;;;;;19.05;48.07;99859.00;16133538;19;130099;-42
2022/11/16 07:18:21;;;;;;;2.80;0.30;;;;;;;18.99;47.87;99859.28;16134136;19;129505;-42
2022/11/16 07:23:43;;;;;;;3.90;0.30;;;;;;;18.92;48.42;99862.31;16127222;19;131007;-42
2022/11/16 07:29:05;;;;;;;1.80;0.20;;;;;;;18.86;48.49;99860.63;16133254;19;129586;-41
2022/11/16 07:34:27;;;;;;;3.95;0.30;;;;;;;18.82;48.52;99865.06;16129561;19;129846;-42
2022/11/16 07:39:49;;;;;;;2.40;0.30;;;;;;;18.79;48.61;99865.59;16132165;19;130003;-42
2022/11/16 07:45:11;;;;;;;2.80;0.30;;;;;;;18.75;48.20;99860.59;16129984;19;131128;-42
2022/11/16 07:50:34;;;;;;;1.38;0.30;;;;;;;18.72;48.55;99860.31;16125812;19;129608;-42
2022/11/16 07:55:56;;;;;;;0.70;0.40;;;;;;;18.70;48.74;99868.06;16127244;19;131043;-42
2022/11/16 08:01:18;;;;;;;0.98;0.30;;;;;;;18.66;48.51;99867.78;16126152;19;129186;-42
2022/11/16 08:06:40;;;;;;;1.13;0.40;;;;;;;18.63;48.39;99871.09;16125690;19;129614;-42
2022/11/16 08:12:01;;;;;;;2.13;0.30;;;;;;;18.61;48.55;99873.28;16124946;19;129263;-42
2022/11/16 08:17:23;;;;;;;4.82;0.38;;;;;;;18.58;48.39;99871.09;16126840;19;130615;-41
2022/11/16 08:22:45;;;;;;;2.88;0.28;;;;;;;18.60;48.31;99874.41;16123281;19;129340;-42
2022/11/16 08:28:07;;;;;;;8.55;2.28;;;;;;;18.42;43.63;99865.50;16124665;19;129525;-43
2022/11/16 08:33:28;;;;;;;11.27;1.75;;;;;;;18.13;42.59;99878.88;16122860;19;129150;-41
2022/11/16 08:38:51;;;;;;;6.88;1.73;;;;;;;18.06;43.31;99870.81;16125469;19;134154;-42
2022/11/16 08:44:14;;;;;;;6.88;1.95;;;;;;;18.13;44.06;99874.16;16126808;19;129335;-41
2022/11/16 08:49:36;;;;;;;7.38;1.48;;;;;;;18.25;43.72;99871.19;16125208;19;129328;-42
2022/11/16 08:54:57;;;;;;;13.05;1.92;;;;;;;18.41;43.96;99866.59;16127029;19;129490;-42
2022/11/16 09:00:19;;;;;;;11.70;1.88;;;;;;;18.54;44.30;99859.69;16123597;19;130657;-42
2022/11/16 09:05:41;;;;;;;7.05;1.45;;;;;;;18.65;44.03;99865.25;16116880;19;130012;-42
2022/11/16 09:11:08;;;;;;;6.53;1.80;;;;;;;18.74;44.22;99864.47;16123052;19;130272;-42
2022/11/16 09:16:29;;;;;;;8.13;1.67;;;;;;;18.80;44.67;99862.53;16123219;19;129651;-42
2022/11/16 09:21:51;;;;;;;6.28;1.10;;;;;;;18.86;44.76;99868.94;16124227;19;129441;-42
2022/11/16 09:27:13;;;;;;;8.10;1.40;;;;;;;18.87;44.62;99870.59;16124294;19;129383;-42
2022/11/16 09:32:35;;;;;;;5.93;1.40;;;;;;;18.87;44.63;99860.38;16124663;19;133576;-42
2022/11/16 09:37:57;;;;;;;5.38;1.40;;;;;;;18.86;44.70;99866.16;16123226;19;130754;-42
2022/11/16 09:43:32;;;;;;;8.38;1.70;;;;;;;18.85;44.86;99867.25;16124096;19;130284;-41
2022/11/16 09:48:59;;;;;;;5.90;1.37;;;;;;;18.83;45.08;99867.53;16123584;19;129501;-42
2022/11/16 09:54:26;;;;;;;7.05;1.60;;;;;;;18.81;45.36;99868.94;16123688;19;129620;-43
2022/11/16 09:59:52;;;;;;;4.65;1.20;;;;;;;18.80;45.15;99872.81;16123379;19;129407;-42
2022/11/16 10:05:21;;;;;;;5.97;1.45;;;;;;;18.79;45.58;99877.50;16122606;19;130962;-43
2022/11/16 10:10:55;;;;;;;4.97;1.05;;;;;;;18.79;45.59;99885.00;16120067;19;129475;-42
2022/11/16 10:16:39;;;;;;;3.78;0.98;;;;;;;18.75;45.80;99884.72;16129048;19;129973;-42
2022/11/16 10:22:28;;;;;;;2.75;0.88;;;;;;;18.74;45.84;99883.88;16135354;19;129418;-43
2022/11/16 10:28:31;;;;;;;5.80;0.90;;;;;;;18.68;45.91;99884.97;16136568;19;135294;-42
2022/11/16 10:33:57;;;;;;;1.35;0.73;;;;;;;18.66;45.91;99892.72;16127239;19;129706;-42
2022/11/16 10:39:19;;;;;;;3.25;0.80;;;;;;;18.62;46.02;99888.81;16127264;19;129909;-42
2022/11/16 10:44:47;;;;;;;3.63;1.10;;;;;;;18.59;45.89;99881.03;16124566;19;129736;-42
2022/11/16 10:50:30;;;;;;;4.00;0.70;;;;;;;18.57;45.98;99880.50;16124474;19;131104;-42
2022/11/16 10:56:09;;;;;;;2.10;0.47;;;;;;;18.56;46.05;99867.75;16126374;19;129410;-42
2022/11/16 11:01:42;;;;;;;1.77;0.70;;;;;;;18.55;46.25;99863.31;16126019;19;131962;-42
2022/11/16 11:07:29;;;;;;;2.17;0.70;;;;;;;18.54;46.07;99853.34;16132508;19;129200;-42
2022/11/16 11:13:03;;;;;;;3.03;0.65;;;;;;;18.54;46.29;99853.34;16144253;19;130426;-46
2022/11/16 11:18:28;;;;;;;3.60;0.65;;;;;;;18.53;46.31;99848.91;16151208;19;130622;-41
2022/11/16 11:23:55;;;;;;;2.20;0.70;;;;;;;18.53;46.02;99849.72;16147658;19;129469;-41
2022/11/16 11:29:40;;;;;;;3.05;0.90;;;;;;;18.52;46.28;99844.47;16144042;19;129549;-42
2022/11/16 11:35:02;;;;;;;1.75;0.50;;;;;;;18.51;46.33;99842.78;16132324;19;129521;-42
2022/11/16 11:40:29;;;;;;;2.28;0.63;;;;;;;18.52;46.14;99836.16;16134481;19;130475;-42
2022/11/16 11:45:59;;;;;;;2.25;0.50;;;;;;;18.49;46.22;99833.91;16132595;19;134872;-42
2022/11/16 11:51:30;;;;;;;4.22;0.77;;;;;;;18.49;45.81;99825.63;16130785;19;132258;-41
2022/11/16 11:56:52;;;;;;;2.10;0.57;;;;;;;18.49;45.90;99814.53;16130492;19;129583;-42
2022/11/16 12:02:41;;;;;;;2.83;0.80;;;;;;;18.51;44.93;99815.94;16129964;19;129732;-42
2022/11/16 12:08:21;;;;;;;1.92;0.70;;;;;;;18.53;44.91;99808.19;16129164;19;129479;-43
2022/11/16 12:14:01;;;;;;;6.32;1.10;;;;;;;18.61;44.35;99806.81;16124523;19;129496;-42
2022/11/16 12:19:29;;;;;;;2.90;0.98;;;;;;;18.62;44.77;99789.09;16127932;19;129723;-43
2022/11/16 12:25:04;;;;;;;5.35;0.90;;;;;;;18.64;44.31;99794.38;16128177;19;133690;-43
2022/11/16 12:30:26;;;;;;;4.37;1.13;;;;;;;18.63;44.60;99785.22;16126763;19;129438;-42
2022/11/16 12:36:01;;;;;;;3.88;1.00;;;;;;;18.64;44.39;99775.81;16128504;19;129825;-42
2022/11/16 12:41:35;;;;;;;4.18;1.00;;;;;;;18.62;44.25;99769.69;16125231;19;128903;-42
2022/11/16 12:47:24;;;;;;;3.35;0.60;;;;;;;18.63;44.29;99765.81;16128496;19;129390;-41
2022/11/16 12:52:59;;;;;;;2.15;0.73;;;;;;;18.61;43.99;99748.66;16126745;19;130689;-42
2022/11/16 12:58:35;;;;;;;5.10;1.13;;;;;;;18.57;44.18;99748.38;16124155;19;130766;-42
2022/11/16 13:04:11;;;;;;;5.20;0.75;;;;;;;18.57;44.44;99753.09;16123706;19;129109;-42
2022/11/16 13:09:38;;;;;;;3.92;1.20;;;;;;;18.55;44.56;99750.56;16124135;19;129548;-42
2022/11/16 13:15:02;;;;;;;4.03;0.80;;;;;;;18.55;44.45;99750.56;16124786;19;129548;-42
2022/11/16 13:20:42;;;;;;;4.18;0.90;;;;;;;18.52;44.46;99747.53;16123552;19;129401;-42
2022/11/16 13:26:22;;;;;;;5.47;1.30;;;;;;;18.52;44.54;99736.44;16123561;19;129735;-42
2022/11/16 13:32:21;;;;;;;6.78;0.82;;;;;;;18.50;44.59;99747.81;16123731;19;129589;-42
2022/11/16 13:37:48;;;;;;;6.68;1.02;;;;;;;18.49;44.86;99739.75;16114370;19;129597;-42
2022/11/16 13:43:10;;;;;;;2.50;0.70;;;;;;;18.50;45.45;99730.34;16121230;19;130635;-42
2022/11/16 13:48:37;;;;;;;3.63;0.80;;;;;;;18.51;45.48;99730.09;16123247;19;129518;-42
2022/11/16 13:53:59;;;;;;;12.10;0.85;;;;;;;18.49;46.05;99726.75;16138240;19;129427;-42
2022/11/16 13:59:41;;;;;;;12.63;1.35;;;;;;;18.50;46.53;99722.03;16137503;19;130381;-43
2022/11/16 14:05:22;;;;;;;7.45;0.90;;;;;;;18.50;46.54;99727.56;16135929;19;130015;-42
2022/11/16 14:10:50;;;;;;;4.57;0.88;;;;;;;18.49;46.97;99732.31;16135120;19;129603;-42
2022/11/16 14:16:18;;;;;;;8.15;1.08;;;;;;;18.49;47.28;99712.91;16137329;19;129549;-41
2022/11/16 14:21:49;;;;;;;4.95;0.75;;;;;;;18.48;47.47;99707.63;16136428;19;129928;-43
2022/11/16 14:27:34;;;;;;;6.82;1.13;;;;;;;18.49;47.72;99701.00;16137316;19;129619;-42
2022/11/16 14:32:56;;;;;;;7.20;0.90;;;;;;;18.46;48.33;99674.69;16136984;19;135057;-43
2022/11/16 14:38:40;;;;;;;3.55;0.85;;;;;;;18.45;48.24;99675.78;16134787;19;129755;-42
2022/11/16 14:44:02;;;;;;;4.38;0.70;;;;;;;18.42;48.61;99691.03;16132948;19;129493;-43
2022/11/16 14:49:26;;;;;;;3.67;0.77;;;;;;;18.40;48.12;99676.63;16133115;19;129626;-42
2022/11/16 14:54:56;;;;;;;3.85;0.75;;;;;;;18.38;47.97;99662.19;16132469;19;129367;-42
2022/11/16 15:00:24;;;;;;;9.70;1.13;;;;;;;18.37;48.07;99660.53;16131915;19;129612;-42
2022/11/16 15:05:46;;;;;;;1.92;0.70;;;;;;;18.35;47.75;99650.84;16131980;19;129728;-42
2022/11/16 15:11:19;;;;;;;4.45;0.70;;;;;;;18.34;48.08;99652.75;16134120;19;129660;-42
2022/11/16 15:16:52;;;;;;;2.22;0.68;;;;;;;18.34;47.83;99655.53;16133390;19;129633;-42
2022/11/16 15:22:17;;;;;;;3.35;0.93;;;;;;;18.31;48.24;99645.84;16132034;19;130246;-42
2022/11/16 15:27:42;;;;;;;5.90;1.13;;;;;;;18.31;48.09;99634.78;16131631;19;130230;-42
2022/11/16 15:33:15;;;;;;;5.77;0.97;;;;;;;18.31;47.79;99634.78;16129394;19;130090;-42
2022/11/16 15:38:37;;;;;;;5.05;0.77;;;;;;;18.26;48.14;99620.94;16129584;19;129763;-41
2022/11/16 15:44:00;;;;;;;6.35;1.00;;;;;;;18.25;48.33;99602.66;16132099;19;129419;-42
2022/11/16 15:49:37;;;;;;;2.05;0.55;;;;;;;18.31;48.88;99592.41;16128939;19;129075;-42
2022/11/16 15:55:04;;;;;;;4.03;0.85;;;;;;;18.38;49.45;99584.66;16131057;19;129323;-42
2022/11/16 16:00:28;;;;;;;1.65;0.57;;;;;;;18.45;50.09;99567.78;16127093;19;129556;-44
2022/11/16 16:05:51;;;;;;;2.25;0.70;;;;;;;18.50;50.42;99572.50;16131334;19;130177;-44
2022/11/16 16:11:19;;;;;;;4.53;1.27;;;;;;;18.52;50.60;99562.81;16128429;19;129437;-43
2022/11/16 16:16:52;;;;;;;3.85;0.77;;;;;;;18.52;50.51;99567.50;16123186;19;129004;-45
2022/11/16 16:22:28;;;;;;;10.20;1.35;;;;;;;18.52;50.97;99550.91;16127077;19;129948;-46
2022/11/16 16:27:50;;;;;;;9.98;1.00;;;;;;;18.47;51.11;99543.44;16130856;19;129288;-45
2022/11/16 16:33:18;;;;;;;9.32;0.90;;;;;;;18.44;50.60;99528.22;16126036;19;129729;-45
2022/11/16 16:38:40;;;;;;;13.10;1.55;;;;;;;18.40;50.65;99521.56;16121595;19;131649;-44
2022/11/16 16:44:04;;;;;;;11.07;0.85;;;;;;;18.37;50.35;99516.53;16122034;19;129461;-44
2022/11/16 16:49:25;;;;;;;1.17;0.40;;;;;;;18.36;50.84;99512.09;16120772;19;129409;-44
2022/11/16 16:54:47;;;;;;;3.63;0.60;;;;;;;18.39;51.26;99503.28;16125428;19;129515;-36
2022/11/16 17:00:10;;;;;;;4.50;0.90;;;;;;;18.52;51.42;99507.44;16119650;19;130280;-35
2022/11/16 17:05:32;;;;;;;1.50;0.47;;;;;;;18.84;51.17;99506.22;16121909;19;129344;-36
2022/11/16 17:10:54;;;;;;;4.32;0.73;;;;;;;19.35;50.74;99507.94;16120322;19;129898;-35
2022/11/16 17:16:16;;;;;;;2.28;0.70;;;;;;;19.86;50.49;99508.72;16123252;19;130022;-34
2022/11/16 17:21:37;;;;;;;4.03;0.60;;;;;;;20.19;49.94;99509.03;16118464;19;129794;-35
2022/11/16 17:26:59;;;;;;;6.13;0.68;;;;;;;20.40;50.08;99486.63;16130664;19;129686;-34
2022/11/16 17:32:21;;;;;;;3.67;0.55;;;;;;;20.45;50.12;99487.41;16138161;19;130039;-34
2022/11/16 17:37:42;;;;;;;3.63;0.80;;;;;;;20.46;50.51;99491.00;16134027;19;129927;-35
2022/11/16 17:43:04;;;;;;;2.55;0.70;;;;;;;20.41;50.73;99489.13;16132429;19;130619;-35
2022/11/16 17:48:26;;;;;;;5.72;0.70;;;;;;;20.32;50.89;99490.88;16130475;19;130734;-34
2022/11/16 17:53:48;;;;;;;8.93;1.00;;;;;;;20.22;51.44;99477.91;16131426;19;129372;-35
2022/11/16 17:59:10;;;;;;;12.95;1.40;;;;;;;20.12;51.10;99472.47;16135075;19;130956;-34
2022/11/16 18:04:32;;;;;;;8.55;1.58;;;;;;;20.01;51.31;99474.50;16135041;19;129485;-36
2022/11/16 18:09:53;;;;;;;16.65;1.65;;;;;;;19.90;50.97;99461.78;16129982;19;129976;-34
2022/11/16 18:15:15;;;;;;;14.90;1.73;;;;;;;19.80;50.81;99466.31;16129505;19;129255;-34
2022/11/16 18:20:52;;;;;;;23.65;2.22;;;;;;;19.74;51.11;99463.88;16128672;19;129728;-34
2022/11/16 18:26:16;;;;;;;13.07;1.50;;;;;;;19.67;50.99;99456.72;16131959;19;129470;-35
2022/11/16 18:31:38;;;;;;;11.32;1.48;;;;;;;19.62;51.48;99450.38;16098795;19;129882;-34
2022/11/16 18:37:00;;;;;;;16.70;1.33;;;;;;;19.57;51.85;99454.00;16129668;19;129803;-34
2022/11/16 18:42:21;;;;;;;12.60;1.30;;;;;;;19.53;51.55;99439.88;16134446;19;130349;-34
2022/11/16 18:47:43;;;;;;;11.27;1.30;;;;;;;19.51;51.67;99438.53;16127858;19;129958;-33
2022/11/16 18:53:05;;;;;;;12.32;1.70;;;;;;;19.49;52.13;99424.13;16128941;19;129768;-35
2022/11/16 18:58:27;;;;;;;13.18;1.40;;;;;;;19.46;51.99;99405.25;16129156;19;130208;-35
2022/11/16 19:04:09;;;;;;;6.65;1.17;;;;;;;19.45;52.12;99384.19;16129455;19;130504;-35
2022/11/16 19:09:31;;;;;;;3.88;1.23;;;;;;;19.45;52.10;99362.00;16123437;19;131544;-34
2022/11/16 19:14:53;;;;;;;1.83;0.68;;;;;;;19.51;52.30;99333.13;16128120;19;129768;-35
2022/11/16 19:20:14;;;;;;;5.85;0.82;;;;;;;19.64;51.93;99315.81;16125672;19;130463;-35
2022/11/16 19:25:36;;;;;;;7.57;1.40;;;;;;;20.05;51.56;99309.00;16123668;19;129704;-35
2022/11/16 19:30:58;;;;;;;8.80;1.23;;;;;;;20.55;51.09;99289.22;16128450;19;129551;-35
2022/11/16 19:36:20;;;;;;;5.53;1.10;;;;;;;21.01;50.40;99286.91;16133269;19;129417;-34
2022/11/16 19:41:42;;;;;;;8.80;0.93;;;;;;;21.43;49.97;99271.16;16128824;19;136386;-34
2022/11/16 19:47:05;;;;;;;5.55;1.20;;;;;;;21.66;49.76;99257.44;16126353;19;130692;-35
2022/11/16 19:52:27;;;;;;;10.55;1.48;;;;;;;21.69;49.39;99242.91;16126418;19;129202;-35
2022/11/16 19:57:49;;;;;;;8.68;0.90;;;;;;;21.65;49.79;99248.25;16128063;19;129761;-35
2022/11/16 20:03:10;;;;;;;13.70;1.33;;;;;;;21.59;49.78;99243.09;16127782;19;134232;-35
2022/11/16 20:08:32;;;;;;;20.27;2.03;;;;;;;21.49;50.14;99238.53;16126910;19;129517;-35
2022/11/16 20:13:56;;;;;;;23.35;2.08;;;;;;;21.37;49.92;99230.69;16125695;19;130114;-35
2022/11/16 20:19:19;;;;;;;13.32;1.30;;;;;;;21.22;49.91;99218.69;16127729;19;129645;-35
2022/11/16 20:24:41;;;;;;;15.20;1.67;;;;;;;21.10;49.88;99218.34;16122606;19;130875;-34
2022/11/16 20:30:03;;;;;;;12.07;1.38;;;;;;;21.00;50.00;99193.50;16126984;19;129111;-42
2022/11/16 20:35:31;;;;;;;19.63;2.00;;;;;;;20.89;49.87;99177.03;16113025;19;131095;-43
2022/11/16 20:40:53;;;;;;;13.50;1.83;;;;;;;20.79;49.97;99174.41;16114185;19;130922;-43
2022/11/16 20:46:17;;;;;;;11.18;1.17;;;;;;;20.70;50.46;99152.03;16115666;19;130212;-42
2022/11/16 20:51:39;;;;;;;17.48;1.88;;;;;;;20.60;50.40;99141.91;16113032;19;129956;-43
2022/11/16 20:57:01;;;;;;;10.20;1.42;;;;;;;20.50;50.38;99107.88;16115452;19;130034;-43
2022/11/16 21:02:22;;;;;;;13.48;1.42;;;;;;;20.40;49.79;99089.47;16114009;19;130300;-43
2022/11/16 21:07:44;;;;;;;6.75;0.95;;;;;;;20.32;49.89;99079.88;16110121;19;129576;-43
2022/11/16 21:18:53;;;;;;;6.03;0.90;;;;;;;20.12;50.10;99034.63;16117567;19;129517;-43
2022/11/16 21:24:15;;;;;;;7.70;0.93;;;;;;;20.03;50.12;99021.75;16119831;19;129170;-43
2022/11/16 21:29:36;;;;;;;9.15;1.23;;;;;;;19.93;49.89;98981.91;16119561;19;130285;-43
2022/11/16 21:34:58;;;;;;;3.75;1.23;;;;;;;19.87;49.88;98958.13;16122177;19;129483;-43
2022/11/16 21:40:20;;;;;;;5.68;0.82;;;;;;;19.80;50.07;98929.97;16123934;19;130101;-43
2022/11/16 21:45:46;;;;;;;6.75;0.80;;;;;;;19.73;49.72;98885.13;16121591;19;129581;-43
2022/11/16 21:51:14;;;;;;;6.97;1.13;;;;;;;19.66;49.64;98858.63;16116960;19;130282;-43
2022/11/16 21:56:35;;;;;;;3.97;0.70;;;;;;;19.57;49.88;98840.19;16118836;19;131458;-43
2022/11/16 22:02:00;;;;;;;4.93;0.90;;;;;;;19.51;49.27;98812.53;16119321;19;129223;-43
2022/11/16 22:07:37;;;;;;;4.40;0.98;;;;;;;19.47;49.67;98810.66;16121305;19;129862;-43
2022/11/16 22:12:58;;;;;;;4.53;1.00;;;;;;;19.39;49.37;98803.88;16128842;19;130756;-43
2022/11/16 22:18:20;;;;;;;3.47;0.73;;;;;;;19.35;49.16;98775.94;16135863;19;129629;-43
2022/11/16 22:23:42;;;;;;;4.80;0.77;;;;;;;19.30;49.19;98789.91;16133573;19;130378;-43
2022/11/16 22:29:04;;;;;;;2.17;0.70;;;;;;;19.25;48.92;98759.47;16136301;19;129711;-43
2022/11/16 22:34:25;;;;;;;2.15;0.60;;;;;;;19.21;49.33;98739.03;16131935;19;131292;-41
2022/11/16 22:39:47;;;;;;;1.67;0.70;;;;;;;19.17;49.24;98730.47;16129846;19;129527;-43
2022/11/16 22:45:09;;;;;;;1.77;0.57;;;;;;;19.14;49.07;98719.16;16130455;19;130624;-43
2022/11/16 22:50:31;;;;;;;1.17;0.57;;;;;;;19.08;48.79;98688.75;16127101;19;129988;-43
2022/11/16 22:55:52;;;;;;;1.90;0.75;;;;;;;19.05;48.76;98678.31;16123078;19;129891;-43
2022/11/16 23:01:14;;;;;;;4.70;0.70;;;;;;;19.03;48.75;98660.31;16122983;19;129905;-43
2022/11/16 23:06:36;;;;;;;1.92;0.50;;;;;;;18.98;48.45;98654.88;16124202;19;130056;-42
2022/11/16 23:17:38;;;;;;;1.98;0.68;;;;;;;18.91;48.44;98624.78;16129045;19;129620;-43
2022/11/16 23:28:39;;;;;;;1.83;0.80;;;;;;;18.86;48.60;98599.94;16131235;19;129762;-42
2022/11/16 23:34:01;;;;;;;1.60;0.55;;;;;;;18.85;48.80;98570.59;16130064;19;130017;-43
2022/11/16 23:39:23;;;;;;;2.47;0.50;;;;;;;18.82;48.29;98546.28;16127919;19;129873;-42
2022/11/16 23:44:44;;;;;;;1.58;0.52;;;;;;;18.77;48.33;98534.19;16128506;19;129769;-43
2022/11/16 23:50:06;;;;;;;3.67;0.85;;;;;;;18.75;48.28;98500.41;16129220;19;129267;-43
2022/11/16 23:55:30;;;;;;;2.85;0.88;;;;;;;18.72;48.33;98503.78;16130259;19;130490;-43
